Time;durP1;ratioP1;P1;durP2;ratioP2;P2;SDS_P1;SDS_P2;PMS_P1;PMS_P2;Temp;Humidity;BMP_temperature;BMP_pressure;BME280_temperature;BME280_humidity;BME280_pressure;Samples;Min_cycle;Max_cycle;Signal;HPM_P1;HPM_P2
2023/01/24 00:01:31;;;;;;;28.50;15.70;;;4.20;99.90;;;;;;5049941;28;20220;-68
2023/01/24 00:03:58;;;;;;;23.93;14.33;;;4.20;99.90;;;;;;5046030;28;20296;-68
2023/01/24 00:06:25;;;;;;;23.93;14.40;;;4.20;99.90;;;;;;5055008;28;20213;-68
2023/01/24 00:08:52;;;;;;;26.17;14.80;;;4.10;99.90;;;;;;5045856;28;20707;-68
2023/01/24 00:11:19;;;;;;;25.40;14.90;;;4.10;99.90;;;;;;5047805;28;20311;-68
2023/01/24 00:13:46;;;;;;;26.43;14.80;;;4.10;99.90;;;;;;5034750;28;20215;-68
2023/01/24 00:16:16;;;;;;;26.63;14.50;;;4.10;99.90;;;;;;5064961;28;20650;-68
2023/01/24 00:18:43;;;;;;;23.97;13.87;;;4.20;99.90;;;;;;5048478;28;20229;-68
2023/01/24 00:21:19;;;;;;;24.90;14.17;;;4.20;99.90;;;;;;5034872;28;20204;-68
2023/01/24 00:23:49;;;;;;;24.93;14.17;;;4.20;99.90;;;;;;5030046;28;20212;-68
2023/01/24 00:26:17;;;;;;;26.30;14.57;;;4.10;99.90;;;;;;5046501;28;20658;-68
2023/01/24 00:28:44;;;;;;;25.17;15.00;;;4.10;99.90;;;;;;5049785;28;20623;-68
2023/01/24 00:31:11;;;;;;;24.03;13.90;;;4.10;99.90;;;;;;5048214;28;20220;-68
2023/01/24 00:33:38;;;;;;;25.87;13.50;;;4.10;99.90;;;;;;5043719;28;20217;-68
2023/01/24 00:36:06;;;;;;;24.27;13.70;;;4.10;99.90;;;;;;5051979;28;20241;-68
2023/01/24 00:38:32;;;;;;;27.93;14.67;;;4.10;99.90;;;;;;5033443;28;20211;-69
2023/01/24 00:40:59;;;;;;;26.70;15.03;;;4.00;99.90;;;;;;5055685;28;20324;-68
2023/01/24 00:43:26;;;;;;;25.57;15.70;;;4.10;99.90;;;;;;5045928;28;20593;-68
2023/01/24 00:45:54;;;;;;;24.60;15.07;;;4.10;99.90;;;;;;5047569;28;20266;-68
2023/01/24 00:48:21;;;;;;;29.47;15.47;;;4.20;99.90;;;;;;5047123;28;20213;-68
2023/01/24 00:50:48;;;;;;;31.77;15.97;;;4.20;99.90;;;;;;5042637;28;20205;-68
2023/01/24 00:53:15;;;;;;;30.37;16.23;;;4.20;99.90;;;;;;5050527;28;20265;-68
2023/01/24 00:55:42;;;;;;;29.20;15.43;;;4.20;99.90;;;;;;5049631;28;20221;-68
2023/01/24 00:58:09;;;;;;;30.20;16.47;;;4.20;99.90;;;;;;5047476;28;20823;-68
2023/01/24 01:00:38;;;;;;;28.20;15.57;;;4.20;99.90;;;;;;5033285;28;20201;-68
2023/01/24 01:03:13;;;;;;;26.57;15.27;;;4.20;99.90;;;;;;5031514;28;20228;-68
2023/01/24 01:05:40;;;;;;;27.63;16.43;;;4.30;99.90;;;;;;5049544;28;20194;-68
2023/01/24 01:08:08;;;;;;;28.23;15.27;;;4.30;99.90;;;;;;5050910;28;20205;-69
2023/01/24 01:10:35;;;;;;;30.13;16.10;;;4.30;99.90;;;;;;5024615;28;20653;-68
2023/01/24 01:13:04;;;;;;;30.63;16.80;;;4.20;99.90;;;;;;5049306;28;20702;-68
2023/01/24 01:15:31;;;;;;;32.57;17.20;;;4.20;99.90;;;;;;5050521;28;20206;-68
2023/01/24 01:17:59;;;;;;;31.67;16.63;;;4.20;99.90;;;;;;5030381;28;20304;-68
2023/01/24 01:20:26;;;;;;;32.13;17.10;;;4.20;99.90;;;;;;5042981;28;20249;-68
2023/01/24 01:22:53;;;;;;;30.03;15.70;;;4.20;99.90;;;;;;5046516;28;20699;-68
2023/01/24 01:25:20;;;;;;;32.07;18.50;;;4.00;99.90;;;;;;5045108;28;20296;-68
2023/01/24 01:27:47;;;;;;;29.50;15.67;;;4.00;99.90;;;;;;5048792;28;20211;-68
2023/01/24 01:30:14;;;;;;;25.47;15.37;;;4.00;99.90;;;;;;5023303;28;20209;-68
2023/01/24 01:32:40;;;;;;;25.93;15.77;;;3.90;99.90;;;;;;5050733;28;20359;-68
2023/01/24 01:35:07;;;;;;;32.10;16.40;;;3.90;99.90;;;;;;5046593;28;20205;-68
2023/01/24 01:37:34;;;;;;;30.60;17.00;;;3.90;99.90;;;;;;5037240;28;20232;-68
2023/01/24 01:40:01;;;;;;;29.37;15.20;;;3.90;99.90;;;;;;5043283;28;20233;-68
2023/01/24 01:43:01;;;;;;;23.17;13.50;;;3.80;99.90;;;;;;5043050;28;20287;-68
2023/01/24 01:45:48;;;;;;;24.73;14.40;;;3.90;99.90;;;;;;5014261;28;20736;-68
2023/01/24 01:48:23;;;;;;;27.27;14.63;;;3.80;99.90;;;;;;5047613;28;20815;-68
2023/01/24 01:50:59;;;;;;;25.10;14.40;;;3.80;99.90;;;;;;5040702;28;20275;-68
2023/01/24 01:53:33;;;;;;;25.43;14.07;;;3.80;99.90;;;;;;5049799;28;20233;-68
2023/01/24 01:56:06;;;;;;;26.30;14.50;;;3.80;99.90;;;;;;5031513;28;20205;-68
2023/01/24 01:58:34;;;;;;;26.03;14.60;;;3.80;99.90;;;;;;5044081;28;20257;-68
2023/01/24 02:01:02;;;;;;;27.07;14.70;;;3.80;99.90;;;;;;5047480;28;20308;-68
2023/01/24 02:03:38;;;;;;;25.33;14.57;;;3.80;99.90;;;;;;5044303;28;20797;-68
2023/01/24 02:06:36;;;;;;;25.60;14.20;;;3.80;99.90;;;;;;5047102;28;20293;-68
2023/01/24 02:09:07;;;;;;;25.50;14.83;;;3.70;99.90;;;;;;5033599;28;20215;-68
2023/01/24 02:11:39;;;;;;;22.77;14.13;;;3.70;99.90;;;;;;5047479;28;20200;-69
2023/01/24 02:16:58;;;;;;;27.37;14.83;;;3.80;99.90;;;;;;5046340;28;20231;-68
2023/01/24 02:19:49;;;;;;;27.40;15.37;;;3.80;99.90;;;;;;5048080;28;20236;-69
2023/01/24 02:22:33;;;;;;;25.67;14.77;;;3.80;99.90;;;;;;5049058;28;20215;-68
2023/01/24 02:25:17;;;;;;;27.43;14.60;;;3.80;99.90;;;;;;5038822;28;20689;-68
2023/01/24 02:27:44;;;;;;;25.27;14.83;;;3.80;99.90;;;;;;5047054;28;20223;-68
2023/01/24 02:30:11;;;;;;;27.17;15.67;;;3.70;99.90;;;;;;5042740;28;20194;-68
2023/01/24 02:32:38;;;;;;;29.50;15.60;;;3.70;99.90;;;;;;5050391;28;20244;-68
2023/01/24 02:35:05;;;;;;;26.00;15.50;;;3.80;99.90;;;;;;5044566;28;20212;-68
2023/01/24 02:37:36;;;;;;;27.37;15.57;;;3.80;99.90;;;;;;5044585;28;20205;-68
2023/01/24 02:40:07;;;;;;;26.97;15.40;;;3.80;99.90;;;;;;5044045;28;20239;-69
2023/01/24 02:42:37;;;;;;;29.00;15.60;;;3.80;99.90;;;;;;5046294;28;20255;-68
2023/01/24 02:45:14;;;;;;;26.77;14.00;;;3.80;99.90;;;;;;5046729;28;20640;-68
2023/01/24 02:47:46;;;;;;;26.83;14.60;;;3.70;99.90;;;;;;5041414;28;20221;-68
2023/01/24 02:50:13;;;;;;;30.27;17.30;;;3.70;99.90;;;;;;5042517;28;20625;-69
2023/01/24 02:55:26;;;;;;;31.30;17.00;;;3.70;99.90;;;;;;5046979;28;20209;-68
2023/01/24 02:58:08;;;;;;;30.90;16.17;;;3.60;99.90;;;;;;5042619;28;20203;-68
2023/01/24 03:00:38;;;;;;;31.47;16.70;;;3.60;99.90;;;;;;5044485;28;20220;-68
2023/01/24 03:03:06;;;;;;;30.07;17.13;;;3.60;99.90;;;;;;5046791;28;20222;-68
2023/01/24 03:05:46;;;;;;;34.93;18.17;;;3.50;99.90;;;;;;5045706;28;20744;-68
2023/01/24 03:08:13;;;;;;;34.83;18.73;;;3.50;99.90;;;;;;5045933;28;20209;-68
2023/01/24 03:10:39;;;;;;;33.13;19.17;;;3.50;99.90;;;;;;5046377;28;20209;-68
2023/01/24 03:35:09;;;;;;;35.23;18.87;;;3.60;99.90;;;;;;5038866;28;20324;-68
2023/01/24 03:40:21;;;;;;;36.13;19.33;;;3.60;99.90;;;;;;5044750;28;20253;-67
2023/01/24 03:42:48;;;;;;;33.30;17.83;;;3.60;99.90;;;;;;5038281;28;20613;-68
2023/01/24 03:45:16;;;;;;;29.47;16.03;;;3.60;99.90;;;;;;5043481;28;20667;-68
2023/01/24 03:47:54;;;;;;;31.90;17.27;;;3.50;99.90;;;;;;5041742;28;20225;-67
2023/01/24 03:53:30;;;;;;;32.57;17.80;;;3.50;99.90;;;;;;5051045;28;20844;-68
2023/01/24 03:55:59;;;;;;;36.93;18.07;;;3.50;99.90;;;;;;5050285;28;20343;-67
2023/01/24 03:58:28;;;;;;;35.30;18.83;;;3.50;99.90;;;;;;5041741;28;20206;-68
2023/01/24 04:00:55;;;;;;;32.37;16.73;;;3.50;99.90;;;;;;5050343;28;20292;-68
2023/01/24 04:03:22;;;;;;;32.43;17.33;;;3.50;99.90;;;;;;5048164;28;20228;-68
2023/01/24 04:05:49;;;;;;;33.37;18.50;;;3.50;99.90;;;;;;5034864;28;20212;-68
2023/01/24 04:08:17;;;;;;;35.97;18.50;;;3.50;99.90;;;;;;5050493;28;20216;-68
2023/01/24 04:10:45;;;;;;;34.20;17.53;;;3.50;99.90;;;;;;5049347;28;20205;-68
2023/01/24 04:13:13;;;;;;;39.27;19.27;;;3.50;99.90;;;;;;5046222;28;20319;-68
2023/01/24 04:15:40;;;;;;;36.87;18.73;;;3.50;99.90;;;;;;5053815;28;20291;-68
2023/01/24 04:18:07;;;;;;;35.33;19.07;;;3.50;99.90;;;;;;5034461;28;20235;-68
2023/01/24 04:20:36;;;;;;;38.40;19.30;;;3.50;99.90;;;;;;5051485;28;20213;-68
2023/01/24 04:23:04;;;;;;;36.63;18.53;;;3.50;99.90;;;;;;5052007;28;20211;-68
2023/01/24 04:25:32;;;;;;;33.90;18.07;;;3.40;99.90;;;;;;5041692;28;20209;-68
2023/01/24 04:27:59;;;;;;;37.63;20.27;;;3.40;99.90;;;;;;5052010;28;20240;-68
2023/01/24 04:30:26;;;;;;;37.67;18.97;;;3.40;99.90;;;;;;5046217;28;20201;-67
2023/01/24 04:32:54;;;;;;;38.13;20.33;;;3.30;99.90;;;;;;5046391;28;20233;-68
2023/01/24 04:35:24;;;;;;;36.70;19.17;;;3.30;99.90;;;;;;5049767;28;20212;-67
2023/01/24 04:37:51;;;;;;;34.70;20.10;;;3.40;99.90;;;;;;5034019;28;20237;-67
2023/01/24 04:40:18;;;;;;;35.40;18.87;;;3.30;99.90;;;;;;5045704;28;20312;-68
2023/01/24 04:42:46;;;;;;;34.37;18.90;;;3.40;99.90;;;;;;5043027;28;20202;-68
2023/01/24 04:45:13;;;;;;;37.93;18.97;;;3.40;99.90;;;;;;5049112;28;20699;-68
2023/01/24 04:47:40;;;;;;;33.37;19.30;;;3.30;99.90;;;;;;5044652;28;20227;-68
2023/01/24 04:50:07;;;;;;;38.37;20.80;;;3.30;99.90;;;;;;5037229;28;20662;-68
2023/01/24 04:52:34;;;;;;;37.37;19.73;;;3.30;99.90;;;;;;5049448;28;20264;-68
2023/01/24 04:55:01;;;;;;;40.23;20.77;;;3.30;99.90;;;;;;5034694;28;20684;-68
2023/01/24 04:57:27;;;;;;;39.97;20.17;;;3.30;99.90;;;;;;5047747;28;20216;-67
2023/01/24 04:59:54;;;;;;;38.13;19.67;;;3.40;99.90;;;;;;5043683;28;20288;-68
2023/01/24 05:02:21;;;;;;;40.33;21.27;;;3.30;99.90;;;;;;5048664;28;20213;-68
2023/01/24 05:04:47;;;;;;;36.17;20.17;;;3.30;99.90;;;;;;5050459;28;20231;-68
2023/01/24 05:07:14;;;;;;;36.17;19.27;;;3.30;99.90;;;;;;5040654;28;20288;-68
2023/01/24 05:09:41;;;;;;;39.47;19.70;;;3.40;99.90;;;;;;5047991;28;20211;-68
2023/01/24 05:12:07;;;;;;;39.33;20.00;;;3.30;99.90;;;;;;5025474;28;20252;-68
2023/01/24 05:14:34;;;;;;;39.60;20.77;;;3.20;99.90;;;;;;5050574;28;20197;-68
2023/01/24 05:17:01;;;;;;;35.80;19.97;;;3.30;99.90;;;;;;5048082;28;20224;-68
2023/01/24 05:19:27;;;;;;;39.93;20.07;;;3.20;99.90;;;;;;5047574;28;20208;-68
2023/01/24 05:21:56;;;;;;;38.37;19.80;;;3.10;99.90;;;;;;5044669;28;20247;-68
2023/01/24 05:24:23;;;;;;;38.57;20.30;;;3.10;99.90;;;;;;5046215;28;20232;-68
2023/01/24 05:26:50;;;;;;;36.83;19.70;;;3.10;99.90;;;;;;5050366;28;20211;-67
2023/01/24 05:29:17;;;;;;;37.93;20.07;;;3.10;99.90;;;;;;5044011;28;20208;-68
2023/01/24 05:31:43;;;;;;;40.50;20.13;;;3.10;99.90;;;;;;5049709;28;20263;-68
2023/01/24 05:34:10;;;;;;;38.10;20.83;;;3.10;99.90;;;;;;5045587;28;20233;-66
2023/01/24 05:36:38;;;;;;;39.07;20.17;;;3.10;99.90;;;;;;5046028;28;20607;-68
2023/01/24 05:39:05;;;;;;;38.17;20.30;;;3.10;99.90;;;;;;5046829;28;20208;-69
2023/01/24 05:41:31;;;;;;;41.37;20.10;;;3.20;99.90;;;;;;5048388;28;20756;-69
2023/01/24 05:43:58;;;;;;;37.60;19.03;;;3.20;99.90;;;;;;5047116;28;20216;-68
2023/01/24 05:46:25;;;;;;;33.13;19.97;;;3.20;99.90;;;;;;5042204;28;20352;-68
2023/01/24 05:48:52;;;;;;;36.87;19.77;;;3.20;99.90;;;;;;5051089;28;20216;-69
2023/01/24 05:51:19;;;;;;;39.00;20.07;;;3.20;99.90;;;;;;5028160;28;20296;-68
2023/01/24 05:53:46;;;;;;;36.47;19.83;;;3.10;99.90;;;;;;5045733;28;20232;-68
2023/01/24 05:56:16;;;;;;;39.57;20.57;;;3.10;99.90;;;;;;5034087;28;20631;-68
2023/01/24 05:58:45;;;;;;;35.50;19.13;;;3.00;99.90;;;;;;5041627;28;20245;-69
2023/01/24 06:01:17;;;;;;;38.27;20.13;;;3.10;99.90;;;;;;5048384;28;20227;-68
2023/01/24 06:03:46;;;;;;;36.73;21.23;;;3.10;99.90;;;;;;5041301;28;20640;-68
2023/01/24 06:06:15;;;;;;;35.63;18.47;;;3.10;99.90;;;;;;5046441;28;20241;-68
2023/01/24 06:11:25;;;;;;;31.93;18.30;;;3.10;99.90;;;;;;4844838;22;20319;-68
2023/01/24 06:13:56;;;;;;;36.97;19.53;;;3.10;99.90;;;;;;5003885;28;20230;-68
2023/01/24 06:16:24;;;;;;;38.37;21.10;;;3.10;99.90;;;;;;5012210;28;20201;-68
2023/01/24 06:18:52;;;;;;;34.13;18.83;;;3.20;99.90;;;;;;5010513;28;20560;-68
2023/01/24 06:21:39;;;;;;;35.07;18.97;;;3.20;99.90;;;;;;5010477;28;20286;-68
2023/01/24 06:24:10;;;;;;;32.00;17.93;;;3.20;99.90;;;;;;5010622;28;20206;-67
2023/01/24 06:26:37;;;;;;;33.17;17.70;;;3.20;99.90;;;;;;5008646;28;20257;-68
2023/01/24 06:29:04;;;;;;;35.07;19.00;;;3.20;99.90;;;;;;5005794;28;20211;-67
2023/01/24 06:31:55;;;;;;;36.10;19.00;;;3.20;99.90;;;;;;5008056;28;20684;-69
2023/01/24 06:34:37;;;;;;;36.83;19.70;;;3.20;99.90;;;;;;5004647;28;20249;-69
2023/01/24 06:37:31;;;;;;;32.67;18.70;;;3.20;99.90;;;;;;5008599;28;20206;-70
2023/01/24 06:39:58;;;;;;;35.13;17.93;;;3.20;99.90;;;;;;5006509;28;20213;-68
2023/01/24 06:42:25;;;;;;;34.57;18.83;;;3.10;99.90;;;;;;5001294;28;20313;-68
2023/01/24 06:44:52;;;;;;;32.87;17.67;;;3.10;99.90;;;;;;5010309;28;20283;-67
2023/01/24 06:47:19;;;;;;;33.03;17.80;;;3.20;99.90;;;;;;5009004;28;20214;-67
2023/01/24 06:49:46;;;;;;;33.87;18.47;;;3.20;99.90;;;;;;5010467;28;20273;-66
2023/01/24 06:52:13;;;;;;;34.23;18.30;;;3.20;99.90;;;;;;5008639;28;20342;-67
2023/01/24 06:54:40;;;;;;;33.90;18.87;;;3.20;99.90;;;;;;5012081;28;20233;-67
2023/01/24 06:57:06;;;;;;;33.13;17.77;;;3.20;99.90;;;;;;4987267;28;20779;-68
2023/01/24 06:59:33;;;;;;;34.23;18.43;;;3.10;99.90;;;;;;5007193;28;20209;-67
2023/01/24 07:02:00;;;;;;;32.53;17.33;;;3.10;99.90;;;;;;5009005;28;20365;-68
2023/01/24 07:04:26;;;;;;;35.67;18.37;;;3.10;99.90;;;;;;5010567;28;20215;-67
2023/01/24 07:06:53;;;;;;;33.20;18.37;;;3.10;99.90;;;;;;5010151;28;20205;-68
2023/01/24 07:09:20;;;;;;;34.53;18.53;;;3.10;99.90;;;;;;5008072;28;20671;-67
2023/01/24 07:11:54;;;;;;;32.97;17.20;;;3.10;99.90;;;;;;5007880;28;20234;-68
2023/01/24 07:14:21;;;;;;;35.97;18.80;;;3.00;99.90;;;;;;5008527;28;20318;-68
2023/01/24 07:16:51;;;;;;;35.73;18.57;;;3.00;99.90;;;;;;5001700;28;20587;-66
2023/01/24 07:19:24;;;;;;;32.63;17.27;;;3.00;99.90;;;;;;5003565;28;20230;-68
2023/01/24 07:21:53;;;;;;;34.70;19.27;;;3.00;99.90;;;;;;5004039;28;20576;-66
2023/01/24 07:24:23;;;;;;;30.80;16.57;;;3.10;99.90;;;;;;5002284;28;20210;-67
2023/01/24 07:26:50;;;;;;;36.97;19.43;;;3.00;99.90;;;;;;4995865;28;20292;-66
2023/01/24 07:29:18;;;;;;;34.17;18.60;;;3.00;99.90;;;;;;5009027;28;20222;-67
2023/01/24 07:31:47;;;;;;;33.43;17.33;;;2.90;99.90;;;;;;5012968;28;20251;-66
2023/01/24 07:34:16;;;;;;;31.67;16.43;;;2.80;99.90;;;;;;5012871;28;20237;-67
2023/01/24 07:36:47;;;;;;;33.87;16.90;;;2.90;99.90;;;;;;5009384;28;20293;-67
2023/01/24 07:39:15;;;;;;;32.23;16.37;;;2.80;99.90;;;;;;5009367;28;20201;-66
2023/01/24 07:41:45;;;;;;;31.87;17.10;;;2.80;99.90;;;;;;5007071;28;20205;-66
2023/01/24 07:44:13;;;;;;;31.43;17.30;;;2.80;99.90;;;;;;5011387;28;20229;-67
2023/01/24 07:46:40;;;;;;;35.63;17.37;;;2.70;99.90;;;;;;5000769;28;20640;-66
2023/01/24 07:49:07;;;;;;;33.40;16.63;;;2.80;99.90;;;;;;5007037;28;20206;-66
2023/01/24 07:51:33;;;;;;;31.27;17.60;;;2.80;99.90;;;;;;5006773;28;20386;-67
2023/01/24 07:54:01;;;;;;;33.93;17.57;;;2.80;99.90;;;;;;5007335;28;20321;-66
2023/01/24 07:56:27;;;;;;;34.40;17.47;;;2.90;99.90;;;;;;4991352;28;20208;-68
2023/01/24 07:58:55;;;;;;;33.80;18.70;;;2.90;99.90;;;;;;4997633;28;20226;-66
2023/01/24 08:01:23;;;;;;;37.70;18.37;;;2.80;99.90;;;;;;5012175;28;20720;-67
2023/01/24 08:03:53;;;;;;;30.57;16.63;;;2.90;99.90;;;;;;5013241;28;20602;-66
2023/01/24 08:06:19;;;;;;;32.30;17.17;;;2.90;99.90;;;;;;5012852;28;20710;-67
2023/01/24 08:08:46;;;;;;;28.63;15.90;;;2.90;99.90;;;;;;5011975;28;20206;-66
2023/01/24 08:11:15;;;;;;;34.27;17.40;;;2.90;99.90;;;;;;5014085;28;20332;-67
2023/01/24 08:13:46;;;;;;;33.73;17.40;;;2.90;99.90;;;;;;5010425;28;20317;-66
2023/01/24 08:16:13;;;;;;;29.10;14.80;;;3.00;99.90;;;;;;5011266;28;20197;-68
2023/01/24 08:18:40;;;;;;;28.40;15.90;;;2.90;99.90;;;;;;5005692;28;20221;-67
2023/01/24 08:21:08;;;;;;;31.73;17.00;;;2.80;99.90;;;;;;5011429;28;20249;-66
2023/01/24 08:23:35;;;;;;;29.97;16.40;;;2.90;99.90;;;;;;5012103;28;20758;-67
2023/01/24 08:26:02;;;;;;;29.93;16.43;;;2.80;99.90;;;;;;5012379;28;20233;-66
2023/01/24 08:28:31;;;;;;;30.83;15.37;;;2.90;99.90;;;;;;5011259;28;20269;-67
2023/01/24 08:30:58;;;;;;;33.07;17.57;;;2.90;99.90;;;;;;5012369;28;20313;-67
2023/01/24 08:33:25;;;;;;;30.43;15.30;;;2.90;99.90;;;;;;5011879;28;20589;-66
2023/01/24 08:35:52;;;;;;;30.30;15.57;;;2.90;99.90;;;;;;5011919;28;20230;-66
2023/01/24 08:38:19;;;;;;;30.13;16.13;;;3.00;99.90;;;;;;5012546;28;20257;-68
2023/01/24 08:40:46;;;;;;;32.10;15.83;;;2.90;99.90;;;;;;5012177;28;20214;-67
2023/01/24 08:43:17;;;;;;;33.17;16.83;;;3.00;99.90;;;;;;5011511;28;20745;-67
2023/01/24 08:45:44;;;;;;;29.70;16.73;;;3.00;99.90;;;;;;5012508;28;20221;-67
2023/01/24 08:48:11;;;;;;;30.40;15.93;;;3.00;99.90;;;;;;4994652;28;20238;-66
2023/01/24 08:50:38;;;;;;;31.63;16.63;;;3.00;99.90;;;;;;4992626;28;20261;-67
2023/01/24 08:53:04;;;;;;;32.30;17.50;;;2.90;99.90;;;;;;5009996;28;20589;-66
2023/01/24 08:55:32;;;;;;;30.47;16.57;;;2.90;99.90;;;;;;4994626;28;20623;-67
2023/01/24 08:58:03;;;;;;;30.73;17.67;;;3.00;99.90;;;;;;5011626;28;20208;-67
2023/01/24 09:00:30;;;;;;;33.47;17.03;;;3.00;99.90;;;;;;5010946;28;20289;-66
2023/01/24 09:03:01;;;;;;;29.40;17.40;;;3.00;99.90;;;;;;5008026;28;20222;-66
2023/01/24 09:05:31;;;;;;;30.77;16.70;;;3.00;99.90;;;;;;4991928;28;20256;-66
2023/01/24 09:07:58;;;;;;;27.80;16.47;;;3.00;99.90;;;;;;4994467;28;20558;-66
2023/01/24 09:10:26;;;;;;;28.13;16.20;;;3.10;99.90;;;;;;5011495;28;20240;-67
2023/01/24 09:12:54;;;;;;;29.63;16.90;;;3.00;99.90;;;;;;5011626;28;20213;-67
2023/01/24 09:15:21;;;;;;;29.23;15.73;;;3.00;99.90;;;;;;5011515;28;20234;-67
2023/01/24 09:17:48;;;;;;;31.43;17.23;;;2.90;99.90;;;;;;4994183;28;20249;-66
2023/01/24 09:20:16;;;;;;;27.60;15.97;;;2.90;99.90;;;;;;5011202;28;20214;-68
2023/01/24 09:22:43;;;;;;;29.43;15.67;;;3.00;99.90;;;;;;4978905;28;20574;-67
2023/01/24 09:25:10;;;;;;;26.97;15.17;;;2.90;99.90;;;;;;4994296;28;20562;-66
2023/01/24 09:27:40;;;;;;;25.20;15.00;;;3.00;99.90;;;;;;5011812;28;20214;-67
2023/01/24 09:30:09;;;;;;;25.10;14.40;;;3.00;99.90;;;;;;5011551;28;20219;-68
2023/01/24 09:32:36;;;;;;;29.57;16.37;;;3.00;99.90;;;;;;5011471;28;20261;-66
2023/01/24 09:35:03;;;;;;;28.60;16.10;;;3.00;99.90;;;;;;5011614;28;20250;-66
2023/01/24 09:37:30;;;;;;;27.53;15.13;;;3.00;99.90;;;;;;5011193;28;20206;-66
2023/01/24 09:39:59;;;;;;;26.87;14.37;;;3.00;99.90;;;;;;5011449;28;20209;-67
2023/01/24 09:42:41;;;;;;;29.83;15.80;;;3.10;99.90;;;;;;5010492;28;20285;-66
2023/01/24 09:45:18;;;;;;;26.57;14.83;;;3.10;99.90;;;;;;5011411;28;20235;-66
2023/01/24 09:47:56;;;;;;;24.67;14.03;;;3.20;99.90;;;;;;5008471;28;20222;-66
2023/01/24 09:50:38;;;;;;;26.03;15.53;;;3.20;99.90;;;;;;5010274;28;20892;-66
2023/01/24 09:53:04;;;;;;;30.20;14.87;;;3.20;99.90;;;;;;5013786;28;20252;-67
2023/01/24 09:55:36;;;;;;;28.53;15.67;;;3.20;99.90;;;;;;4990494;28;20702;-66
2023/01/24 09:58:36;;;;;;;27.07;15.57;;;3.20;99.90;;;;;;4993286;28;20249;-68
2023/01/24 10:01:08;;;;;;;25.97;13.93;;;3.20;99.90;;;;;;5009721;28;20273;-66
2023/01/24 10:03:37;;;;;;;28.90;15.33;;;3.20;99.90;;;;;;5010393;28;20230;-66
2023/01/24 10:06:11;;;;;;;27.27;15.50;;;3.30;99.90;;;;;;5010742;28;20232;-68
2023/01/24 10:09:09;;;;;;;28.50;14.83;;;3.20;99.90;;;;;;5006734;28;20268;-67
2023/01/24 10:11:48;;;;;;;27.40;15.13;;;3.20;99.90;;;;;;5009059;28;20261;-66
2023/01/24 10:14:32;;;;;;;25.47;13.80;;;3.20;99.90;;;;;;4992844;28;20705;-66
2023/01/24 10:17:13;;;;;;;24.30;14.63;;;3.20;99.90;;;;;;5009057;28;20252;-66
2023/01/24 10:19:59;;;;;;;27.23;15.37;;;3.20;99.90;;;;;;5010589;28;20209;-66
2023/01/24 10:23:03;;;;;;;28.33;15.67;;;3.30;99.90;;;;;;5010757;28;20253;-67
2023/01/24 10:25:50;;;;;;;25.47;14.90;;;3.30;99.90;;;;;;4993023;28;20316;-66
2023/01/24 10:28:37;;;;;;;28.50;15.17;;;3.40;99.90;;;;;;5009370;28;20305;-67
2023/01/24 10:31:09;;;;;;;31.67;15.27;;;3.40;99.90;;;;;;5009511;28;20850;-66
2023/01/24 10:33:47;;;;;;;29.87;16.23;;;3.40;99.90;;;;;;5010457;28;20582;-68
2023/01/24 10:36:24;;;;;;;26.63;15.23;;;3.50;99.90;;;;;;5008663;28;20304;-66
2023/01/24 10:38:50;;;;;;;25.60;14.87;;;3.50;99.90;;;;;;4991998;28;20210;-66
2023/01/24 10:41:20;;;;;;;28.70;15.87;;;3.50;99.90;;;;;;5009374;28;20261;-66
2023/01/24 10:43:54;;;;;;;29.33;15.67;;;3.50;99.90;;;;;;5010079;28;20659;-67
2023/01/24 10:46:58;;;;;;;27.77;15.23;;;3.50;99.90;;;;;;5009457;28;20771;-67
2023/01/24 10:49:41;;;;;;;24.27;13.80;;;3.60;99.90;;;;;;5010071;28;20206;-66
2023/01/24 10:52:12;;;;;;;26.83;15.00;;;3.60;99.90;;;;;;5008828;28;20766;-66
2023/01/24 10:54:56;;;;;;;24.80;14.57;;;3.60;99.90;;;;;;5010590;28;20321;-66
2023/01/24 10:57:35;;;;;;;28.87;15.73;;;3.70;99.90;;;;;;5008414;28;20256;-66
2023/01/24 11:00:08;;;;;;;25.13;15.77;;;3.80;99.90;;;;;;5011906;28;20272;-66
2023/01/24 11:02:36;;;;;;;27.23;15.23;;;3.80;99.90;;;;;;4995556;28;20309;-66
2023/01/24 11:05:05;;;;;;;24.00;14.27;;;3.70;99.90;;;;;;5014181;28;20495;-67
2023/01/24 11:07:40;;;;;;;27.17;15.90;;;3.80;99.90;;;;;;4996926;28;20202;-66
2023/01/24 11:10:16;;;;;;;25.20;14.77;;;3.80;99.90;;;;;;4996947;28;20217;-67
2023/01/24 11:12:55;;;;;;;23.60;15.03;;;3.80;99.90;;;;;;5011387;28;20276;-66
2023/01/24 11:15:27;;;;;;;26.53;15.07;;;3.70;99.90;;;;;;5014312;28;20233;-67
2023/01/24 11:17:57;;;;;;;26.80;15.60;;;3.70;99.90;;;;;;5013556;28;20227;-67
2023/01/24 11:20:28;;;;;;;23.07;13.67;;;3.60;99.90;;;;;;5014251;28;20214;-66
2023/01/24 11:23:10;;;;;;;27.40;14.70;;;3.60;99.90;;;;;;5012803;28;20230;-67
2023/01/24 11:26:01;;;;;;;24.67;14.70;;;3.60;99.90;;;;;;4995478;28;20742;-67
2023/01/24 11:28:29;;;;;;;24.23;16.00;;;3.60;99.90;;;;;;4995710;28;20207;-67
2023/01/24 11:31:18;;;;;;;26.40;15.73;;;3.60;99.90;;;;;;5010465;28;20241;-67
2023/01/24 11:34:03;;;;;;;31.57;17.83;;;3.60;99.90;;;;;;5010326;28;20238;-67
2023/01/24 11:36:39;;;;;;;30.97;17.90;;;3.60;99.90;;;;;;5014000;28;20206;-68
2023/01/24 11:39:23;;;;;;;29.13;17.07;;;3.70;99.90;;;;;;5012429;28;20218;-67
2023/01/24 11:41:58;;;;;;;32.27;18.53;;;3.70;99.90;;;;;;5011509;28;20213;-67
2023/01/24 11:44:31;;;;;;;23.23;14.37;;;3.80;99.90;;;;;;5013726;28;20301;-67
2023/01/24 11:47:06;;;;;;;23.43;14.67;;;3.80;99.90;;;;;;5013215;28;20691;-67
2023/01/24 11:49:48;;;;;;;25.57;15.17;;;3.70;99.90;;;;;;5012210;28;20979;-67
2023/01/24 11:52:33;;;;;;;25.60;14.93;;;3.70;99.90;;;;;;5013471;28;20202;-68
2023/01/24 11:55:11;;;;;;;27.87;15.13;;;3.70;99.90;;;;;;5011095;28;20234;-67
2023/01/24 11:58:08;;;;;;;27.27;14.47;;;3.70;99.90;;;;;;5011696;28;20229;-67
2023/01/24 12:00:45;;;;;;;26.13;15.33;;;3.70;99.90;;;;;;5010074;28;20664;-67
2023/01/24 12:03:27;;;;;;;29.73;16.97;;;3.70;99.90;;;;;;5012898;28;20219;-67
2023/01/24 12:06:03;;;;;;;25.60;15.30;;;3.60;99.90;;;;;;5011411;28;20202;-67
2023/01/24 12:09:01;;;;;;;27.40;15.93;;;3.60;99.90;;;;;;5012644;28;20203;-67
2023/01/24 12:11:51;;;;;;;26.73;16.10;;;3.70;99.90;;;;;;5009131;28;20318;-67
2023/01/24 12:14:37;;;;;;;26.47;15.60;;;3.60;99.90;;;;;;5011290;28;20230;-67
2023/01/24 12:17:33;;;;;;;27.77;15.67;;;3.50;99.90;;;;;;5010148;28;20235;-67
2023/01/24 12:20:12;;;;;;;26.97;16.07;;;3.60;99.90;;;;;;4957473;28;20729;-67
2023/01/24 12:23:11;;;;;;;27.17;16.07;;;3.60;99.90;;;;;;5012937;28;20734;-67
2023/01/24 12:25:44;;;;;;;26.07;15.87;;;3.60;99.90;;;;;;5013387;28;20215;-68
2023/01/24 12:28:34;;;;;;;27.03;15.43;;;3.70;99.90;;;;;;5012831;28;20207;-67
2023/01/24 12:31:03;;;;;;;28.83;16.53;;;3.70;99.90;;;;;;5012261;28;20333;-67
2023/01/24 12:33:37;;;;;;;25.23;15.60;;;3.80;99.90;;;;;;5009283;28;20690;-67
2023/01/24 12:36:16;;;;;;;26.57;16.60;;;3.80;99.90;;;;;;5010648;28;20235;-67
2023/01/24 12:38:46;;;;;;;27.20;16.80;;;3.80;99.90;;;;;;5010331;28;20210;-67
2023/01/24 12:41:30;;;;;;;23.93;14.80;;;3.80;99.90;;;;;;5012423;28;20211;-67
2023/01/24 12:44:15;;;;;;;27.63;16.73;;;3.90;99.90;;;;;;5011120;28;20236;-67
2023/01/24 12:46:58;;;;;;;30.33;17.03;;;3.80;99.90;;;;;;5012207;28;20594;-67
2023/01/24 12:49:25;;;;;;;26.00;15.67;;;3.90;99.90;;;;;;5011933;28;20506;-67
2023/01/24 12:52:35;;;;;;;25.57;15.60;;;3.90;99.90;;;;;;5011977;28;20206;-68
2023/01/24 12:55:10;;;;;;;27.07;15.70;;;3.90;99.90;;;;;;5010609;28;20226;-66
2023/01/24 12:57:51;;;;;;;26.87;16.70;;;3.90;99.90;;;;;;5011176;28;20251;-66
2023/01/24 13:00:22;;;;;;;32.37;17.50;;;3.80;99.90;;;;;;5011889;28;20309;-65
2023/01/24 13:03:19;;;;;;;28.23;17.73;;;3.70;99.90;;;;;;4980062;28;20645;-66
2023/01/24 13:06:16;;;;;;;28.37;17.53;;;3.70;99.90;;;;;;5011971;28;20213;-66
2023/01/24 13:09:07;;;;;;;29.57;16.73;;;3.70;99.90;;;;;;5008699;28;20658;-67
2023/01/24 13:11:47;;;;;;;28.30;17.17;;;3.70;99.90;;;;;;5010849;28;20687;-67
2023/01/24 13:14:22;;;;;;;28.53;17.83;;;3.80;99.90;;;;;;5011983;28;20208;-66
2023/01/24 13:17:25;;;;;;;30.47;18.20;;;3.80;99.90;;;;;;5011958;28;20249;-66
2023/01/24 13:20:21;;;;;;;30.97;18.23;;;3.80;99.90;;;;;;5009629;28;20198;-67
2023/01/24 13:22:55;;;;;;;30.77;18.00;;;3.80;99.90;;;;;;5011088;28;20210;-66
2023/01/24 13:25:52;;;;;;;29.13;18.37;;;3.80;99.90;;;;;;5011727;28;20232;-66
2023/01/24 13:28:28;;;;;;;29.53;17.43;;;3.80;99.90;;;;;;5010891;28;20217;-67
2023/01/24 13:31:04;;;;;;;31.17;17.80;;;3.80;99.90;;;;;;4990114;28;20585;-66
2023/01/24 13:33:49;;;;;;;32.97;19.33;;;3.80;99.90;;;;;;5011320;28;20219;-66
2023/01/24 13:36:20;;;;;;;30.17;17.70;;;3.90;99.90;;;;;;5010444;28;20762;-67
2023/01/24 13:38:48;;;;;;;31.20;19.93;;;3.90;99.90;;;;;;5010507;28;20551;-66